Other Surface Observations
Issued by NWS Missoula, MT

Home | Current Version | Previous Version | Text Only | Print | Product List | Glossary On
Versions: 1 2 3 4 5 6 7 8 9 10 11 12 13 14 15 16 17 18 19 20 21 22 23 24 25 26 27 28 29 30 31 32 33 34 35 36 37 38 39 40 41 42 43 44 45 46 47 48 49 50
869
SXUS55 KMSO 251403
OSOMSO
MONTANA AWOS SUMMARY
NATIONAL WEATHER SERVICE MISSOULA MT
802 AM MDT SUN SEP 25 2016

Montana AWOS Reports

LAUREL      |K6S8 251355Z AUTO 00000KT 40SM 07/01 A3034 RMK AO1 T00670011
ROUNDUP     |KRPX 251355Z AUTO 19009G13KT 40SM 07/02 A3025 RMK AO1 T00670017
SCOBEY      |K9S2 251355Z AUTO 28006KT 40SM 06/00 A3018 RMK AO1 T00560000
PLAINS      |KS34 251355Z AUTO 00000KT 40SM 06/03 A3041 RMK AO1 T00610033




USA.gov is the U.S. government's official web portal to all federal, state and local government web resources and services.